sensor_id;sensor_type;location;lat;lon;timestamp;pressure;altitude;pressure_sealevel;temperature;humidity
59240;BME280;45010;53.640;10.578;2022-12-18T00:01:39;102277.34;;;21.98;33.08
59240;BME280;45010;53.640;10.578;2022-12-18T00:04:39;102263.03;;;21.99;33.13
59240;BME280;45010;53.640;10.578;2022-12-18T00:07:40;102272.84;;;21.98;33.27
59240;BME280;45010;53.640;10.578;2022-12-18T00:10:40;102235.94;;;21.80;32.92
59240;BME280;45010;53.640;10.578;2022-12-18T00:13:41;102229.63;;;21.81;33.07
59240;BME280;45010;53.640;10.578;2022-12-18T00:16:46;102257.63;;;21.92;33.20
59240;BME280;45010;53.640;10.578;2022-12-18T00:19:46;102278.97;;;21.99;32.98
59240;BME280;45010;53.640;10.578;2022-12-18T00:22:47;102268.09;;;21.94;32.87
59240;BME280;45010;53.640;10.578;2022-12-18T00:25:47;102290.44;;;21.99;33.02
59240;BME280;45010;53.640;10.578;2022-12-18T00:28:48;102265.97;;;21.81;33.05
59240;BME280;45010;53.640;10.578;2022-12-18T00:31:48;102285.97;;;22.00;33.12
59240;BME280;45010;53.640;10.578;2022-12-18T00:34:49;102284.28;;;21.99;33.11
59240;BME280;45010;53.640;10.578;2022-12-18T00:37:49;102289.59;;;21.99;32.67
59240;BME280;45010;53.640;10.578;2022-12-18T00:40:49;102284.28;;;21.99;32.93
59240;BME280;45010;53.640;10.578;2022-12-18T00:43:50;102288.63;;;22.00;32.89
59240;BME280;45010;53.640;10.578;2022-12-18T00:46:50;102286.69;;;21.94;32.84
59240;BME280;45010;53.640;10.578;2022-12-18T00:49:51;102296.59;;;22.00;33.09
59240;BME280;45010;53.640;10.578;2022-12-18T00:52:51;102298.41;;;21.99;32.81
59240;BME280;45010;53.640;10.578;2022-12-18T00:55:51;102303.56;;;22.01;32.82
59240;BME280;45010;53.640;10.578;2022-12-18T00:58:52;102312.53;;;22.00;32.77
59240;BME280;45010;53.640;10.578;2022-12-18T01:01:52;102316.19;;;21.99;32.81
59240;BME280;45010;53.640;10.578;2022-12-18T01:04:52;102323.16;;;22.00;32.96
59240;BME280;45010;53.640;10.578;2022-12-18T01:07:53;102313.34;;;22.00;32.77
59240;BME280;45010;53.640;10.578;2022-12-18T01:10:53;102306.22;;;22.01;32.94
59240;BME280;45010;53.640;10.578;2022-12-18T01:13:54;102300.94;;;21.93;32.73
59240;BME280;45010;53.640;10.578;2022-12-18T01:16:55;102307.22;;;22.00;32.89
59240;BME280;45010;53.640;10.578;2022-12-18T01:19:55;102312.53;;;22.00;32.84
59240;BME280;45010;53.640;10.578;2022-12-18T01:22:55;102313.50;;;21.99;33.27
59240;BME280;45010;53.640;10.578;2022-12-18T01:25:56;102308.19;;;21.99;32.88
59240;BME280;45010;53.640;10.578;2022-12-18T01:28:56;102308.19;;;21.99;32.82
59240;BME280;45010;53.640;10.578;2022-12-18T01:31:57;102310.84;;;21.99;32.76
59240;BME280;45010;53.640;10.578;2022-12-18T01:34:57;102317.84;;;22.00;33.00
59240;BME280;45010;53.640;10.578;2022-12-18T01:37:58;102313.50;;;21.99;33.12
59240;BME280;45010;53.640;10.578;2022-12-18T01:40:59;102285.22;;;21.83;32.74
59240;BME280;45010;53.640;10.578;2022-12-18T01:44:00;102310.84;;;21.99;32.57
59240;BME280;45010;53.640;10.578;2022-12-18T01:47:00;102307.22;;;22.00;32.77
59240;BME280;45010;53.640;10.578;2022-12-18T01:50:04;102271.78;;;21.84;32.86
59240;BME280;45010;53.640;10.578;2022-12-18T01:53:17;102298.59;;;21.98;32.77
59240;BME280;45010;53.640;10.578;2022-12-18T01:56:20;102305.44;;;21.92;32.70
59240;BME280;45010;53.640;10.578;2022-12-18T01:59:21;102308.19;;;21.99;32.95
59240;BME280;45010;53.640;10.578;2022-12-18T02:02:21;102288.72;;;21.83;32.69
59240;BME280;45010;53.640;10.578;2022-12-18T02:05:46;102314.53;;;21.98;32.63
59240;BME280;45010;53.640;10.578;2022-12-18T02:12:24;102309.91;;;21.92;32.81
59240;BME280;45010;53.640;10.578;2022-12-18T02:15:34;102318.03;;;21.90;32.65
59240;BME280;45010;53.640;10.578;2022-12-18T02:18:39;102316.22;;;21.90;32.82
59240;BME280;45010;53.640;10.578;2022-12-18T02:22:11;102327.97;;;21.96;32.56
59240;BME280;45010;53.640;10.578;2022-12-18T02:29:00;102332.47;;;21.96;32.80
59240;BME280;45010;53.640;10.578;2022-12-18T02:32:04;102319.72;;;21.91;32.65
59240;BME280;45010;53.640;10.578;2022-12-18T02:35:12;102305.97;;;21.79;32.87
59240;BME280;45010;53.640;10.578;2022-12-18T02:38:15;102330.16;;;21.93;32.68
59240;BME280;45010;53.640;10.578;2022-12-18T02:41:16;102343.91;;;21.96;32.86
59240;BME280;45010;53.640;10.578;2022-12-18T02:44:17;102308.16;;;21.75;32.74
59240;BME280;45010;53.640;10.578;2022-12-18T02:47:20;102319.44;;;21.77;32.58
59240;BME280;45010;53.640;10.578;2022-12-18T02:50:34;102342.25;;;21.95;32.73
59240;BME280;45010;53.640;10.578;2022-12-18T02:53:50;102341.44;;;21.95;32.73
59240;BME280;45010;53.640;10.578;2022-12-18T02:56:58;102341.44;;;21.95;32.91
59240;BME280;45010;53.640;10.578;2022-12-18T03:00:16;102344.78;;;21.88;32.54
59240;BME280;45010;53.640;10.578;2022-12-18T03:03:24;102352.06;;;21.95;32.84
59240;BME280;45010;53.640;10.578;2022-12-18T03:06:30;102352.88;;;21.95;32.55
59240;BME280;45010;53.640;10.578;2022-12-18T03:09:35;102350.44;;;21.94;32.80
59240;BME280;45010;53.640;10.578;2022-12-18T03:12:43;102357.38;;;21.95;32.64
59240;BME280;45010;53.640;10.578;2022-12-18T03:15:49;102345.78;;;21.87;32.68
59240;BME280;45010;53.640;10.578;2022-12-18T03:18:55;102333.50;;;21.86;32.76
59240;BME280;45010;53.640;10.578;2022-12-18T03:22:00;102347.09;;;21.92;32.56
59240;BME280;45010;53.640;10.578;2022-12-18T03:25:06;102349.75;;;21.92;32.52
59240;BME280;45010;53.640;10.578;2022-12-18T03:28:10;102341.78;;;21.92;32.78
59240;BME280;45010;53.640;10.578;2022-12-18T03:31:14;102332.69;;;21.86;32.50
59240;BME280;45010;53.640;10.578;2022-12-18T03:34:17;102341.78;;;21.92;32.50
59240;BME280;45010;53.640;10.578;2022-12-18T03:37:19;102350.75;;;21.90;32.38
59240;BME280;45010;53.640;10.578;2022-12-18T03:40:29;102348.78;;;21.84;32.84
59240;BME280;45010;53.640;10.578;2022-12-18T03:43:52;102345.28;;;21.84;32.62
59240;BME280;45010;53.640;10.578;2022-12-18T03:47:18;102352.41;;;21.92;32.53
59240;BME280;45010;53.640;10.578;2022-12-18T03:50:46;102356.06;;;21.90;32.46
59240;BME280;45010;53.640;10.578;2022-12-18T03:53:55;102357.72;;;21.92;32.65
59240;BME280;45010;53.640;10.578;2022-12-18T03:57:05;102356.06;;;21.90;32.42
59240;BME280;45010;53.640;10.578;2022-12-18T04:00:12;102354.94;;;21.85;32.34
59240;BME280;45010;53.640;10.578;2022-12-18T04:03:13;102363.03;;;21.92;32.46
59240;BME280;45010;53.640;10.578;2022-12-18T04:06:16;102357.72;;;21.92;32.42
59240;BME280;45010;53.640;10.578;2022-12-18T04:09:18;102357.72;;;21.92;32.38
59240;BME280;45010;53.640;10.578;2022-12-18T04:12:19;102349.75;;;21.92;32.43
59240;BME280;45010;53.640;10.578;2022-12-18T04:15:19;102352.41;;;21.92;32.30
59240;BME280;45010;53.640;10.578;2022-12-18T04:18:19;102352.41;;;21.92;32.64
59240;BME280;45010;53.640;10.578;2022-12-18T04:21:21;102342.63;;;21.92;32.70
59240;BME280;45010;53.640;10.578;2022-12-18T04:24:22;102335.16;;;21.87;32.48
59240;BME280;45010;53.640;10.578;2022-12-18T04:27:23;102341.78;;;21.92;32.70
59240;BME280;45010;53.640;10.578;2022-12-18T04:30:23;102339.13;;;21.92;32.38
59240;BME280;45010;53.640;10.578;2022-12-18T04:33:23;102344.44;;;21.92;32.49
59240;BME280;45010;53.640;10.578;2022-12-18T04:36:24;102345.13;;;21.94;32.48
59240;BME280;45010;53.640;10.578;2022-12-18T04:39:25;102355.75;;;21.94;32.80
59240;BME280;45010;53.640;10.578;2022-12-18T04:42:26;102349.59;;;21.93;32.57
59240;BME280;45010;53.640;10.578;2022-12-18T04:45:26;102353.25;;;21.92;32.24
59240;BME280;45010;53.640;10.578;2022-12-18T04:48:26;102358.41;;;21.94;32.30
59240;BME280;45010;53.640;10.578;2022-12-18T04:51:27;102355.75;;;21.94;32.38
59240;BME280;45010;53.640;10.578;2022-12-18T04:54:27;102362.69;;;21.95;32.70
59240;BME280;45010;53.640;10.578;2022-12-18T04:57:27;102367.00;;;21.96;32.63
59240;BME280;45010;53.640;10.578;2022-12-18T05:00:28;102357.38;;;21.95;32.40
59240;BME280;45010;53.640;10.578;2022-12-18T05:03:28;102369.66;;;21.96;32.63
59240;BME280;45010;53.640;10.578;2022-12-18T05:06:29;102372.16;;;21.97;32.70
59240;BME280;45010;53.640;10.578;2022-12-18T05:09:29;102359.41;;;21.84;32.63
59240;BME280;45010;53.640;10.578;2022-12-18T05:12:30;102373.31;;;21.95;32.52
59240;BME280;45010;53.640;10.578;2022-12-18T05:15:32;102367.81;;;21.96;32.43
59240;BME280;45010;53.640;10.578;2022-12-18T05:18:32;102361.72;;;21.87;32.46
59240;BME280;45010;53.640;10.578;2022-12-18T05:21:33;102380.94;;;21.98;32.60
59240;BME280;45010;53.640;10.578;2022-12-18T05:24:33;102353.47;;;21.82;32.65
59240;BME280;45010;53.640;10.578;2022-12-18T05:27:34;102388.91;;;21.98;32.35
59240;BME280;45010;53.640;10.578;2022-12-18T05:30:34;102387.25;;;21.97;32.35
59240;BME280;45010;53.640;10.578;2022-12-18T05:33:35;102388.91;;;21.98;32.65
59240;BME280;45010;53.640;10.578;2022-12-18T05:36:36;102384.44;;;21.98;32.58
59240;BME280;45010;53.640;10.578;2022-12-18T05:39:36;102389.75;;;21.98;32.79
59240;BME280;45010;53.640;10.578;2022-12-18T05:42:36;102386.09;;;21.99;32.64
59240;BME280;45010;53.640;10.578;2022-12-18T05:45:40;102386.09;;;21.99;32.36
59240;BME280;45010;53.640;10.578;2022-12-18T05:48:42;102391.22;;;22.01;32.38
59240;BME280;45010;53.640;10.578;2022-12-18T05:51:42;102399.19;;;22.01;32.34
59240;BME280;45010;53.640;10.578;2022-12-18T05:54:42;102399.19;;;22.01;32.33
59240;BME280;45010;53.640;10.578;2022-12-18T05:57:43;102400.00;;;22.01;32.24
59240;BME280;45010;53.640;10.578;2022-12-18T06:00:45;102400.84;;;22.02;32.44
59240;BME280;45010;53.640;10.578;2022-12-18T06:03:46;102402.50;;;22.03;32.59
59240;BME280;45010;53.640;10.578;2022-12-18T06:06:46;102396.19;;;22.04;32.32
59240;BME280;45010;53.640;10.578;2022-12-18T06:09:46;102391.22;;;22.01;32.42
59240;BME280;45010;53.640;10.578;2022-12-18T06:12:47;102399.69;;;22.04;32.59
59240;BME280;45010;53.640;10.578;2022-12-18T06:15:47;102393.53;;;22.04;32.26
59240;BME280;45010;53.640;10.578;2022-12-18T06:18:47;102394.38;;;22.04;32.59
59240;BME280;45010;53.640;10.578;2022-12-18T06:21:48;102397.19;;;22.03;32.61
59240;BME280;45010;53.640;10.578;2022-12-18T06:24:49;102395.19;;;22.05;32.34
59240;BME280;45010;53.640;10.578;2022-12-18T06:27:49;102400.50;;;22.05;32.34
59240;BME280;45010;53.640;10.578;2022-12-18T06:30:49;102402.97;;;22.07;32.26
59240;BME280;45010;53.640;10.578;2022-12-18T06:33:50;102407.50;;;22.06;32.38
59240;BME280;45010;53.640;10.578;2022-12-18T06:36:50;102415.47;;;22.06;32.43
59240;BME280;45010;53.640;10.578;2022-12-18T06:39:51;102413.78;;;22.05;32.16
59240;BME280;45010;53.640;10.578;2022-12-18T06:42:52;102421.41;;;22.08;32.58
59240;BME280;45010;53.640;10.578;2022-12-18T06:45:58;102432.03;;;22.08;32.50
59240;BME280;45010;53.640;10.578;2022-12-18T06:48:59;102435.72;;;22.07;32.49
59240;BME280;45010;53.640;10.578;2022-12-18T06:51:59;102448.00;;;22.08;32.35
59240;BME280;45010;53.640;10.578;2022-12-18T06:54:59;102448.00;;;22.08;32.17
59240;BME280;45010;53.640;10.578;2022-12-18T06:58:00;102453.31;;;22.08;32.35
59240;BME280;45010;53.640;10.578;2022-12-18T07:01:02;102449.63;;;22.09;32.30
59240;BME280;45010;53.640;10.578;2022-12-18T07:04:02;102450.47;;;22.10;32.33
59240;BME280;45010;53.640;10.578;2022-12-18T07:07:03;102440.66;;;22.10;32.36
59240;BME280;45010;53.640;10.578;2022-12-18T07:10:03;102434.06;;;22.06;32.28
59240;BME280;45010;53.640;10.578;2022-12-18T07:13:03;102444.00;;;22.12;32.50
59240;BME280;45010;53.640;10.578;2022-12-18T07:19:06;102438.69;;;22.12;32.25
59240;BME280;45010;53.640;10.578;2022-12-18T07:22:06;102438.69;;;22.12;32.30
59240;BME280;45010;53.640;10.578;2022-12-18T07:25:07;102441.34;;;22.12;32.25
59240;BME280;45010;53.640;10.578;2022-12-18T07:28:07;102444.00;;;22.12;32.42
59240;BME280;45010;53.640;10.578;2022-12-18T07:31:14;102429.06;;;22.03;32.66
59240;BME280;45010;53.640;10.578;2022-12-18T07:34:14;102443.78;;;22.14;32.41
59240;BME280;45010;53.640;10.578;2022-12-18T07:37:15;102449.31;;;22.12;32.21
59240;BME280;45010;53.640;10.578;2022-12-18T07:40:15;102466.91;;;22.13;32.13
59240;BME280;45010;53.640;10.578;2022-12-18T07:43:16;102478.34;;;22.14;31.99
59240;BME280;45010;53.640;10.578;2022-12-18T07:46:17;102473.88;;;22.14;32.51
59240;BME280;45010;53.640;10.578;2022-12-18T07:49:17;102472.22;;;22.13;32.22
59240;BME280;45010;53.640;10.578;2022-12-18T07:52:17;102466.59;;;22.08;32.51
59240;BME280;45010;53.640;10.578;2022-12-18T07:55:18;102487.16;;;22.14;32.30
59240;BME280;45010;53.640;10.578;2022-12-18T07:58:18;102489.81;;;22.14;32.35
59240;BME280;45010;53.640;10.578;2022-12-18T08:01:19;102484.50;;;22.14;31.76
59240;BME280;45010;53.640;10.578;2022-12-18T08:04:19;102484.50;;;22.14;32.42
59240;BME280;45010;53.640;10.578;2022-12-18T08:07:20;102485.84;;;22.10;32.29
59240;BME280;45010;53.640;10.578;2022-12-18T08:10:20;102455.31;;;21.98;32.34
59240;BME280;45010;53.640;10.578;2022-12-18T08:13:21;102480.19;;;22.13;32.35
59240;BME280;45010;53.640;10.578;2022-12-18T08:16:21;102475.56;;;22.07;32.52
59240;BME280;45010;53.640;10.578;2022-12-18T08:19:22;102477.53;;;22.13;32.13
59240;BME280;45010;53.640;10.578;2022-12-18T08:22:22;102488.16;;;22.13;32.16
59240;BME280;45010;53.640;10.578;2022-12-18T08:25:23;102460.50;;;21.91;32.33
59240;BME280;45010;53.640;10.578;2022-12-18T08:28:23;102488.16;;;22.13;31.87
59240;BME280;45010;53.640;10.578;2022-12-18T08:31:25;102478.22;;;22.07;32.31
59240;BME280;45010;53.640;10.578;2022-12-18T08:34:25;102473.88;;;22.14;32.49
59240;BME280;45010;53.640;10.578;2022-12-18T08:37:26;102449.69;;;22.01;32.28
59240;BME280;45010;53.640;10.578;2022-12-18T08:40:26;102473.88;;;22.14;32.11
59240;BME280;45010;53.640;10.578;2022-12-18T08:43:27;102440.75;;;21.94;32.37
59240;BME280;45010;53.640;10.578;2022-12-18T08:46:46;102472.22;;;22.13;32.27
59240;BME280;45010;53.640;10.578;2022-12-18T08:49:46;102475.88;;;22.12;32.37
59240;BME280;45010;53.640;10.578;2022-12-18T08:52:46;102465.25;;;22.12;32.37
59240;BME280;45010;53.640;10.578;2022-12-18T08:55:47;102460.91;;;22.11;32.28
59240;BME280;45010;53.640;10.578;2022-12-18T08:58:47;102456.44;;;22.12;32.09
59240;BME280;45010;53.640;10.578;2022-12-18T09:01:47;102440.38;;;21.97;32.30
59240;BME280;45010;53.640;10.578;2022-12-18T09:04:48;102463.56;;;22.11;32.30
59240;BME280;45010;53.640;10.578;2022-12-18T09:07:48;102474.19;;;22.11;32.37
59240;BME280;45010;53.640;10.578;2022-12-18T09:10:51;102458.66;;;22.00;32.29
59240;BME280;45010;53.640;10.578;2022-12-18T09:13:52;102478.69;;;22.11;32.22
59240;BME280;45010;53.640;10.578;2022-12-18T09:16:52;102459.94;;;22.04;32.38
59240;BME280;45010;53.640;10.578;2022-12-18T09:19:53;102462.75;;;22.11;32.09
59240;BME280;45010;53.640;10.578;2022-12-18T09:22:53;102468.06;;;22.11;32.07
59240;BME280;45010;53.640;10.578;2022-12-18T09:25:58;102467.22;;;22.10;32.30
59240;BME280;45010;53.640;10.578;2022-12-18T09:28:59;102461.09;;;22.10;32.36
59240;BME280;45010;53.640;10.578;2022-12-18T09:31:59;102435.28;;;21.87;32.21
59240;BME280;45010;53.640;10.578;2022-12-18T09:34:59;102464.75;;;22.09;31.78
59240;BME280;45010;53.640;10.578;2022-12-18T09:38:00;102463.94;;;22.08;32.60
59240;BME280;45010;53.640;10.578;2022-12-18T09:41:05;102457.97;;;21.98;32.17
59240;BME280;45010;53.640;10.578;2022-12-18T09:44:22;102474.56;;;22.08;32.42
59240;BME280;45010;53.640;10.578;2022-12-18T09:47:27;102463.97;;;22.00;32.33
59240;BME280;45010;53.640;10.578;2022-12-18T09:50:34;102466.75;;;22.07;32.39
59240;BME280;45010;53.640;10.578;2022-12-18T09:53:38;102456.31;;;21.97;32.29
59240;BME280;45010;53.640;10.578;2022-12-18T09:56:42;102462.13;;;22.00;32.36
59240;BME280;45010;53.640;10.578;2022-12-18T09:59:47;102479.88;;;22.08;32.33
59240;BME280;45010;53.640;10.578;2022-12-18T10:02:51;102479.03;;;22.08;32.37
59240;BME280;45010;53.640;10.578;2022-12-18T10:06:05;102474.72;;;22.07;32.07
59240;BME280;45010;53.640;10.578;2022-12-18T10:13:22;102469.56;;;22.05;32.30
59240;BME280;45010;53.640;10.578;2022-12-18T10:16:36;102469.56;;;22.05;32.43
59240;BME280;45010;53.640;10.578;2022-12-18T10:20:01;102470.25;;;21.99;32.33
59240;BME280;45010;53.640;10.578;2022-12-18T10:23:17;102482.84;;;22.05;32.17
59240;BME280;45010;53.640;10.578;2022-12-18T10:26:19;102467.91;;;22.04;32.36
59240;BME280;45010;53.640;10.578;2022-12-18T10:29:19;102466.91;;;22.05;32.29
59240;BME280;45010;53.640;10.578;2022-12-18T10:32:23;102470.25;;;21.99;32.40
59240;BME280;45010;53.640;10.578;2022-12-18T10:35:25;102480.19;;;22.05;32.39
59240;BME280;45010;53.640;10.578;2022-12-18T10:38:29;102485.50;;;22.05;32.00
59240;BME280;45010;53.640;10.578;2022-12-18T10:41:30;102496.97;;;22.06;32.34
59240;BME280;45010;53.640;10.578;2022-12-18T10:44:32;102472.63;;;21.94;32.17
59240;BME280;45010;53.640;10.578;2022-12-18T10:47:33;102489.16;;;22.04;32.08
59240;BME280;45010;53.640;10.578;2022-12-18T10:50:36;102486.19;;;21.99;32.49
59240;BME280;45010;53.640;10.578;2022-12-18T10:53:39;102481.22;;;21.96;32.31
59240;BME280;45010;53.640;10.578;2022-12-18T10:56:41;102478.56;;;21.96;32.38
59240;BME280;45010;53.640;10.578;2022-12-18T10:59:53;102471.56;;;22.03;31.92
59240;BME280;45010;53.640;10.578;2022-12-18T11:02:55;102477.72;;;22.03;32.36
59240;BME280;45010;53.640;10.578;2022-12-18T11:06:03;102459.97;;;21.96;32.05
59240;BME280;45010;53.640;10.578;2022-12-18T11:09:19;102458.31;;;21.95;32.29
59240;BME280;45010;53.640;10.578;2022-12-18T11:12:22;102447.69;;;21.95;32.48
59240;BME280;45010;53.640;10.578;2022-12-18T11:15:27;102462.97;;;22.01;32.42
59240;BME280;45010;53.640;10.578;2022-12-18T11:18:32;102462.63;;;21.96;32.38
59240;BME280;45010;53.640;10.578;2022-12-18T11:21:39;102476.88;;;22.03;32.39
59240;BME280;45010;53.640;10.578;2022-12-18T11:24:40;102458.13;;;21.96;32.14
59240;BME280;45010;53.640;10.578;2022-12-18T11:27:40;102466.25;;;22.03;32.11
59240;BME280;45010;53.640;10.578;2022-12-18T11:30:41;102460.94;;;22.03;32.08
59240;BME280;45010;53.640;10.578;2022-12-18T11:33:46;102418.38;;;21.80;32.26
59240;BME280;45010;53.640;10.578;2022-12-18T11:36:49;102448.66;;;22.02;32.23
59240;BME280;45010;53.640;10.578;2022-12-18T11:39:56;102439.69;;;22.03;32.10
59240;BME280;45010;53.640;10.578;2022-12-18T11:43:07;102422.31;;;21.92;32.25
59240;BME280;45010;53.640;10.578;2022-12-18T11:46:14;102446.66;;;22.04;32.51
59240;BME280;45010;53.640;10.578;2022-12-18T11:49:34;102442.03;;;21.98;32.46
59240;BME280;45010;53.640;10.578;2022-12-18T11:52:39;102449.47;;;22.02;32.42
59240;BME280;45010;53.640;10.578;2022-12-18T11:56:01;102440.53;;;22.03;32.29
59240;BME280;45010;53.640;10.578;2022-12-18T11:59:31;102432.41;;;21.97;32.35
59240;BME280;45010;53.640;10.578;2022-12-18T12:03:02;102434.38;;;22.03;32.11
59240;BME280;45010;53.640;10.578;2022-12-18T12:09:56;102441.34;;;22.04;32.27
59240;BME280;45010;53.640;10.578;2022-12-18T12:16:24;102436.03;;;22.04;32.20
59240;BME280;45010;53.640;10.578;2022-12-18T12:22:47;102437.69;;;22.05;32.37
59240;BME280;45010;53.640;10.578;2022-12-18T12:26:03;102413.81;;;21.97;32.19
59240;BME280;45010;53.640;10.578;2022-12-18T12:32:53;102400.38;;;21.98;32.24
59240;BME280;45010;53.640;10.578;2022-12-18T12:39:37;102378.94;;;22.00;32.29
59240;BME280;45010;53.640;10.578;2022-12-18T12:42:41;102373.31;;;21.95;32.42
59240;BME280;45010;53.640;10.578;2022-12-18T12:46:07;102375.31;;;21.93;32.56
59240;BME280;45010;53.640;10.578;2022-12-18T12:49:20;102390.56;;;21.99;32.49
59240;BME280;45010;53.640;10.578;2022-12-18T12:52:35;102386.22;;;22.06;32.26
59240;BME280;45010;53.640;10.578;2022-12-18T12:55:38;102386.22;;;22.06;32.52
59240;BME280;45010;53.640;10.578;2022-12-18T12:58:49;102364.00;;;21.99;32.47
59240;BME280;45010;53.640;10.578;2022-12-18T13:05:34;102353.34;;;22.07;32.37
59240;BME280;45010;53.640;10.578;2022-12-18T13:08:57;102348.03;;;22.07;32.10
59240;BME280;45010;53.640;10.578;2022-12-18T13:12:11;102330.13;;;22.01;32.60
59240;BME280;45010;53.640;10.578;2022-12-18T13:15:34;102332.09;;;22.07;32.20
59240;BME280;45010;53.640;10.578;2022-12-18T13:18:36;102334.75;;;22.07;32.35
59240;BME280;45010;53.640;10.578;2022-12-18T13:21:37;102329.44;;;22.07;32.63
59240;BME280;45010;53.640;10.578;2022-12-18T13:24:37;102313.81;;;22.04;32.90
59240;BME280;45010;53.640;10.578;2022-12-18T13:30:52;102311.16;;;22.04;32.29
59240;BME280;45010;53.640;10.578;2022-12-18T13:34:22;102305.53;;;21.99;32.52
59240;BME280;45010;53.640;10.578;2022-12-18T13:43:46;102331.41;;;22.05;32.57
59240;BME280;45010;53.640;10.578;2022-12-18T13:46:50;102305.78;;;21.89;32.54
59240;BME280;45010;53.640;10.578;2022-12-18T13:49:51;102328.75;;;22.05;32.58
59240;BME280;45010;53.640;10.578;2022-12-18T13:52:52;102333.09;;;22.06;32.32
59240;BME280;45010;53.640;10.578;2022-12-18T13:55:52;102336.72;;;22.05;32.53
59240;BME280;45010;53.640;10.578;2022-12-18T13:59:13;102324.44;;;22.04;32.39
59240;BME280;45010;53.640;10.578;2022-12-18T14:02:16;102328.13;;;22.03;32.40
59240;BME280;45010;53.640;10.578;2022-12-18T14:05:28;102335.06;;;22.04;32.30
59240;BME280;45010;53.640;10.578;2022-12-18T14:08:36;102338.75;;;22.03;32.51
59240;BME280;45010;53.640;10.578;2022-12-18T14:11:38;102337.09;;;22.02;32.54
59240;BME280;45010;53.640;10.578;2022-12-18T14:14:41;102342.41;;;22.02;32.52
59240;BME280;45010;53.640;10.578;2022-12-18T14:17:43;102351.38;;;22.01;32.23
59240;BME280;45010;53.640;10.578;2022-12-18T14:20:44;102350.06;;;21.97;32.62
59240;BME280;45010;53.640;10.578;2022-12-18T14:23:44;102348.72;;;22.01;32.32
59240;BME280;45010;53.640;10.578;2022-12-18T14:26:49;102324.88;;;21.84;32.42
59240;BME280;45010;53.640;10.578;2022-12-18T14:29:50;102336.44;;;22.00;32.32
59240;BME280;45010;53.640;10.578;2022-12-18T14:33:14;102300.66;;;21.79;32.26
59240;BME280;45010;53.640;10.578;2022-12-18T14:36:20;102332.09;;;21.99;32.40
59240;BME280;45010;53.640;10.578;2022-12-18T14:39:21;102326.78;;;21.99;32.25
59240;BME280;45010;53.640;10.578;2022-12-18T14:42:22;102320.84;;;21.97;32.57
59240;BME280;45010;53.640;10.578;2022-12-18T14:45:39;102314.53;;;21.98;32.20
59240;BME280;45010;53.640;10.578;2022-12-18T14:48:42;102311.56;;;21.93;32.37
59240;BME280;45010;53.640;10.578;2022-12-18T14:51:48;102319.84;;;21.98;32.62
59240;BME280;45010;53.640;10.578;2022-12-18T14:54:49;102320.84;;;21.97;32.50
59240;BME280;45010;53.640;10.578;2022-12-18T14:57:52;102318.88;;;21.90;32.49
59240;BME280;45010;53.640;10.578;2022-12-18T15:00:54;102317.34;;;21.96;32.37
59240;BME280;45010;53.640;10.578;2022-12-18T15:03:56;102308.25;;;21.90;32.54
59240;BME280;45010;53.640;10.578;2022-12-18T15:07:11;102316.53;;;21.96;32.30
59240;BME280;45010;53.640;10.578;2022-12-18T15:10:28;102306.72;;;21.96;32.28
59240;BME280;45010;53.640;10.578;2022-12-18T15:13:29;102299.97;;;21.94;32.31
59240;BME280;45010;53.640;10.578;2022-12-18T15:16:29;102307.94;;;21.94;31.84
59240;BME280;45010;53.640;10.578;2022-12-18T15:19:40;102293.34;;;21.81;32.26
59240;BME280;45010;53.640;10.578;2022-12-18T15:22:41;102293.84;;;21.85;32.46
59240;BME280;45010;53.640;10.578;2022-12-18T15:25:42;102296.31;;;21.86;32.23
59240;BME280;45010;53.640;10.578;2022-12-18T15:28:55;102294.66;;;21.85;32.23
59240;BME280;45010;53.640;10.578;2022-12-18T15:31:59;102297.63;;;21.90;32.23
59240;BME280;45010;53.640;10.578;2022-12-18T15:38:09;102280.03;;;21.89;32.45
59240;BME280;45010;53.640;10.578;2022-12-18T15:41:14;102261.16;;;21.84;32.31
59240;BME280;45010;53.640;10.578;2022-12-18T15:44:23;102252.53;;;21.82;32.42
59240;BME280;45010;53.640;10.578;2022-12-18T15:47:24;102262.47;;;21.88;32.31
59240;BME280;45010;53.640;10.578;2022-12-18T15:50:25;102268.59;;;21.89;32.23
59240;BME280;45010;53.640;10.578;2022-12-18T15:53:29;102250.53;;;21.84;32.43
59240;BME280;45010;53.640;10.578;2022-12-18T15:56:30;102241.22;;;21.88;32.32
59240;BME280;45010;53.640;10.578;2022-12-18T15:59:51;102239.25;;;21.82;32.33
59240;BME280;45010;53.640;10.578;2022-12-18T16:02:52;102245.69;;;21.88;32.56
59240;BME280;45010;53.640;10.578;2022-12-18T16:05:53;102229.50;;;21.74;32.31
59240;BME280;45010;53.640;10.578;2022-12-18T16:08:53;102243.19;;;21.86;32.20
59240;BME280;45010;53.640;10.578;2022-12-18T16:11:53;102228.91;;;21.87;32.24
59240;BME280;45010;53.640;10.578;2022-12-18T16:14:54;102231.56;;;21.87;32.22
59240;BME280;45010;53.640;10.578;2022-12-18T16:17:54;102227.25;;;21.86;32.39
59240;BME280;45010;53.640;10.578;2022-12-18T16:20:54;102221.94;;;21.86;32.23
59240;BME280;45010;53.640;10.578;2022-12-18T16:23:55;102212.16;;;21.87;32.42
59240;BME280;45010;53.640;10.578;2022-12-18T16:26:57;102210.22;;;21.81;32.47
59240;BME280;45010;53.640;10.578;2022-12-18T16:29:59;102212.97;;;21.87;32.31
59240;BME280;45010;53.640;10.578;2022-12-18T16:32:59;102180.25;;;21.63;32.33
59240;BME280;45010;53.640;10.578;2022-12-18T16:36:00;102209.34;;;21.88;32.05
59240;BME280;45010;53.640;10.578;2022-12-18T16:39:00;102199.53;;;21.89;32.38